Time;durP1;ratioP1;P1;durP2;ratioP2;P2;SDS_P1;SDS_P2;PMS_P1;PMS_P2;Temp;Humidity;BMP_temperature;BMP_pressure;BME280_temperature;BME280_humidity;BME280_pressure;Samples;Min_cycle;Max_cycle;Signal;HPM_P1;HPM_P2
2023/12/30 00:01:20;;;;;;;55.97;2.73;;;;;;;;;;5078407;28;20436;-70
2023/12/30 00:03:48;;;;;;;55.60;2.03;;;;;;;;;;5078166;28;20496;-70
2023/12/30 00:06:15;;;;;;;55.77;2.40;;;;;;;;;;5061865;28;20463;-69
2023/12/30 00:08:42;;;;;;;55.77;2.63;;;;;;;;;;5078417;28;20847;-66
2023/12/30 00:11:09;;;;;;;55.77;2.60;;;;;;;;;;5078280;28;20546;-67
2023/12/30 00:13:38;;;;;;;55.97;2.10;;;;;;;;;;5077862;28;20534;-67
2023/12/30 00:16:07;;;;;;;55.47;2.13;;;;;;;;;;5078216;28;20477;-67
2023/12/30 00:18:34;;;;;;;55.33;1.97;;;;;;;;;;5078477;28;20462;-66
2023/12/30 00:21:01;;;;;;;55.67;2.20;;;;;;;;;;5077830;28;20530;-67
2023/12/30 00:23:28;;;;;;;56.10;3.27;;;;;;;;;;5076911;28;20461;-69
2023/12/30 00:25:55;;;;;;;55.80;2.10;;;;;;;;;;5077329;28;20426;-70
2023/12/30 00:28:22;;;;;;;55.50;2.07;;;;;;;;;;5077498;28;20477;-69
2023/12/30 00:30:49;;;;;;;55.47;2.00;;;;;;;;;;5077746;28;20527;-68
2023/12/30 00:33:18;;;;;;;55.60;2.00;;;;;;;;;;5077356;28;20474;-69
2023/12/30 00:35:46;;;;;;;55.47;2.07;;;;;;;;;;5077267;28;20438;-69
2023/12/30 00:38:13;;;;;;;55.80;1.93;;;;;;;;;;5068072;28;20475;-70
2023/12/30 00:40:40;;;;;;;55.67;1.80;;;;;;;;;;5070498;28;20583;-68
2023/12/30 00:43:07;;;;;;;55.70;2.03;;;;;;;;;;5068146;28;20501;-70
2023/12/30 00:45:34;;;;;;;55.47;1.93;;;;;;;;;;5077914;28;20502;-68
2023/12/30 00:48:02;;;;;;;55.63;1.97;;;;;;;;;;5077713;28;20451;-69
2023/12/30 00:50:31;;;;;;;55.57;1.60;;;;;;;;;;5077937;28;20538;-68
2023/12/30 00:52:58;;;;;;;55.27;1.77;;;;;;;;;;5077662;28;20549;-68
2023/12/30 00:55:25;;;;;;;55.50;1.80;;;;;;;;;;5077672;28;20442;-68
2023/12/30 00:57:52;;;;;;;55.23;1.77;;;;;;;;;;5077741;28;20440;-69
2023/12/30 01:00:19;;;;;;;55.40;2.00;;;;;;;;;;5077734;28;20472;-69
2023/12/30 01:02:46;;;;;;;55.07;1.80;;;;;;;;;;5077718;28;20482;-68
2023/12/30 01:05:14;;;;;;;55.33;1.87;;;;;;;;;;5077334;28;20484;-68
2023/12/30 01:07:42;;;;;;;55.57;1.80;;;;;;;;;;5077534;28;20473;-68
2023/12/30 01:10:10;;;;;;;55.47;1.70;;;;;;;;;;5077420;28;20469;-69
2023/12/30 01:12:37;;;;;;;55.80;1.80;;;;;;;;;;5062953;28;20479;-69
2023/12/30 01:15:04;;;;;;;55.50;2.10;;;;;;;;;;5064948;28;20504;-70
2023/12/30 01:17:33;;;;;;;55.40;1.90;;;;;;;;;;5074835;28;20453;-68
2023/12/30 01:20:00;;;;;;;55.80;2.57;;;;;;;;;;5074605;28;20466;-71
2023/12/30 01:22:27;;;;;;;55.47;2.10;;;;;;;;;;5071847;28;20509;-70
2023/12/30 01:24:56;;;;;;;55.47;2.00;;;;;;;;;;5070739;28;20494;-72
2023/12/30 01:27:23;;;;;;;56.00;2.30;;;;;;;;;;5069869;28;20522;-71
2023/12/30 01:29:50;;;;;;;55.47;2.23;;;;;;;;;;5069952;28;20492;-71
2023/12/30 01:32:17;;;;;;;55.90;2.50;;;;;;;;;;5070496;28;20473;-72
2023/12/30 01:34:44;;;;;;;55.80;2.00;;;;;;;;;;5068379;28;20481;-72
2023/12/30 01:37:11;;;;;;;57.57;2.20;;;;;;;;;;5067739;28;20520;-72
2023/12/30 01:39:38;;;;;;;55.37;2.20;;;;;;;;;;5067961;28;20482;-71
2023/12/30 01:42:07;;;;;;;55.80;2.03;;;;;;;;;;5068797;28;20483;-71
2023/12/30 01:44:35;;;;;;;55.70;2.20;;;;;;;;;;5069013;28;20466;-71
2023/12/30 01:47:02;;;;;;;55.17;2.03;;;;;;;;;;5068462;28;20459;-70
2023/12/30 01:49:29;;;;;;;55.47;2.13;;;;;;;;;;5068785;28;20510;-71
2023/12/30 01:51:57;;;;;;;55.40;1.80;;;;;;;;;;5068535;28;20529;-71
2023/12/30 01:54:24;;;;;;;54.97;1.93;;;;;;;;;;5048225;28;20547;-70
2023/12/30 01:56:51;;;;;;;56.20;2.70;;;;;;;;;;5048790;28;20485;-71
2023/12/30 01:59:20;;;;;;;55.80;1.93;;;;;;;;;;5051115;28;20460;-69
2023/12/30 02:01:47;;;;;;;55.80;2.40;;;;;;;;;;5052292;28;20479;-71
2023/12/30 02:04:14;;;;;;;55.47;2.23;;;;;;;;;;5048255;28;21512;-71
2023/12/30 02:06:42;;;;;;;56.87;2.60;;;;;;;;;;5048581;28;20470;-71
2023/12/30 02:09:09;;;;;;;55.60;2.03;;;;;;;;;;5046980;28;20506;-70
2023/12/30 02:11:36;;;;;;;55.70;2.30;;;;;;;;;;5047167;28;20492;-70
2023/12/30 02:14:03;;;;;;;55.57;2.13;;;;;;;;;;5046685;28;20502;-71
2023/12/30 02:16:32;;;;;;;55.47;2.07;;;;;;;;;;5047216;28;20445;-71
2023/12/30 02:18:59;;;;;;;55.70;2.00;;;;;;;;;;5047639;28;20466;-69
2023/12/30 02:21:26;;;;;;;55.90;2.47;;;;;;;;;;5047274;28;20564;-69
2023/12/30 02:23:55;;;;;;;55.77;2.30;;;;;;;;;;5047004;28;20491;-69
2023/12/30 02:26:23;;;;;;;55.47;1.90;;;;;;;;;;5060205;28;20486;-69
2023/12/30 02:28:51;;;;;;;55.50;2.13;;;;;;;;;;5068061;28;20830;-68
2023/12/30 02:31:18;;;;;;;55.50;1.97;;;;;;;;;;5068107;28;20559;-70
2023/12/30 02:33:45;;;;;;;55.50;2.20;;;;;;;;;;5066811;28;20523;-69
2023/12/30 02:36:12;;;;;;;55.57;2.37;;;;;;;;;;5067748;28;20479;-69
2023/12/30 02:38:39;;;;;;;55.13;1.80;;;;;;;;;;5068888;28;20475;-69
2023/12/30 02:41:07;;;;;;;55.80;2.30;;;;;;;;;;5071077;28;20978;-70
2023/12/30 02:43:37;;;;;;;55.37;1.90;;;;;;;;;;5068458;28;20510;-70
2023/12/30 02:46:04;;;;;;;55.40;2.00;;;;;;;;;;5067643;28;20477;-69
2023/12/30 02:48:31;;;;;;;55.70;2.10;;;;;;;;;;5070244;28;20518;-70
2023/12/30 02:50:59;;;;;;;55.37;2.00;;;;;;;;;;5071097;28;20517;-69
2023/12/30 02:53:26;;;;;;;55.60;2.30;;;;;;;;;;5070762;28;20465;-70
2023/12/30 02:55:53;;;;;;;55.70;2.00;;;;;;;;;;5071464;28;20546;-69
2023/12/30 02:58:21;;;;;;;55.77;2.40;;;;;;;;;;5070295;28;20549;-70
2023/12/30 03:03:53;;;;;;;56.83;2.50;;;;;;;;;;5070920;28;20430;-70
2023/12/30 03:06:21;;;;;;;55.57;2.50;;;;;;;;;;5071317;28;20481;-70
2023/12/30 03:08:48;;;;;;;55.50;2.13;;;;;;;;;;5070171;28;20892;-69
2023/12/30 03:11:15;;;;;;;55.60;2.00;;;;;;;;;;5069948;28;20554;-70
2023/12/30 03:13:43;;;;;;;55.60;2.30;;;;;;;;;;5054792;28;21090;-70
2023/12/30 03:16:13;;;;;;;55.47;2.00;;;;;;;;;;5050353;28;20513;-70
2023/12/30 03:18:40;;;;;;;55.70;2.20;;;;;;;;;;5049260;28;20447;-69
2023/12/30 03:21:08;;;;;;;55.57;2.30;;;;;;;;;;5048735;28;20458;-70
2023/12/30 03:23:36;;;;;;;55.57;2.00;;;;;;;;;;5049189;28;20561;-70
2023/12/30 03:26:03;;;;;;;55.80;2.03;;;;;;;;;;5049562;28;20462;-71
2023/12/30 03:28:31;;;;;;;56.00;2.60;;;;;;;;;;5048894;28;20491;-70
2023/12/30 03:30:59;;;;;;;56.20;2.77;;;;;;;;;;5048433;28;20514;-70
2023/12/30 03:33:27;;;;;;;55.67;2.40;;;;;;;;;;5060473;28;20454;-71
2023/12/30 03:35:54;;;;;;;55.57;2.40;;;;;;;;;;5069116;28;20522;-70
2023/12/30 03:38:21;;;;;;;55.60;2.20;;;;;;;;;;5068114;28;20485;-71
2023/12/30 03:40:48;;;;;;;55.50;2.20;;;;;;;;;;5068464;28;20515;-71
2023/12/30 03:43:16;;;;;;;55.43;2.40;;;;;;;;;;5068256;28;20539;-71
2023/12/30 03:45:43;;;;;;;55.27;2.07;;;;;;;;;;5068206;28;20598;-70
2023/12/30 03:48:11;;;;;;;55.80;2.30;;;;;;;;;;5068742;28;20546;-70
2023/12/30 03:50:37;;;;;;;55.67;2.10;;;;;;;;;;5067558;28;20526;-71
2023/12/30 03:53:05;;;;;;;55.70;2.40;;;;;;;;;;5067570;28;20469;-70
2023/12/30 03:55:32;;;;;;;55.53;2.20;;;;;;;;;;5060367;28;20455;-70
2023/12/30 03:57:59;;;;;;;55.47;2.00;;;;;;;;;;5068571;28;20973;-71
2023/12/30 04:00:26;;;;;;;55.57;2.30;;;;;;;;;;5047474;28;20450;-70
2023/12/30 04:02:53;;;;;;;55.17;2.20;;;;;;;;;;5047995;28;20562;-71
2023/12/30 04:05:22;;;;;;;55.57;2.20;;;;;;;;;;5048146;28;20493;-70
2023/12/30 04:07:50;;;;;;;56.17;2.20;;;;;;;;;;5047198;28;20475;-71
2023/12/30 04:10:17;;;;;;;55.57;2.00;;;;;;;;;;5047931;28;20453;-71
2023/12/30 04:12:44;;;;;;;55.47;2.20;;;;;;;;;;5047473;28;20481;-70
2023/12/30 04:15:12;;;;;;;55.50;2.20;;;;;;;;;;5047154;28;20524;-71
2023/12/30 04:17:39;;;;;;;55.67;2.20;;;;;;;;;;5047763;28;20453;-70
2023/12/30 04:20:07;;;;;;;55.57;2.20;;;;;;;;;;5047673;28;20470;-71
2023/12/30 04:22:35;;;;;;;55.27;2.20;;;;;;;;;;5047459;28;20475;-71
2023/12/30 04:25:03;;;;;;;55.47;2.00;;;;;;;;;;5047629;28;20448;-71
2023/12/30 04:27:30;;;;;;;55.67;2.40;;;;;;;;;;5048018;28;20484;-70
2023/12/30 04:29:57;;;;;;;55.43;1.90;;;;;;;;;;5047941;28;20870;-70
2023/12/30 04:32:25;;;;;;;55.43;2.13;;;;;;;;;;5050038;28;20490;-71
2023/12/30 04:34:52;;;;;;;55.77;2.20;;;;;;;;;;5062345;28;20436;-71
2023/12/30 04:37:20;;;;;;;55.33;2.30;;;;;;;;;;5048895;28;20520;-70
2023/12/30 04:39:49;;;;;;;55.70;1.90;;;;;;;;;;5047651;28;20472;-71
2023/12/30 04:42:16;;;;;;;55.53;2.40;;;;;;;;;;5046191;28;20474;-71
2023/12/30 04:44:43;;;;;;;55.17;2.30;;;;;;;;;;5047055;28;20565;-70
2023/12/30 04:47:10;;;;;;;55.47;2.30;;;;;;;;;;5047436;28;20447;-70
2023/12/30 04:49:37;;;;;;;55.50;2.07;;;;;;;;;;5046572;28;20530;-70
2023/12/30 04:52:04;;;;;;;55.67;2.40;;;;;;;;;;5055761;28;20567;-70
2023/12/30 04:54:31;;;;;;;55.47;2.30;;;;;;;;;;5046278;28;20466;-71
2023/12/30 04:57:00;;;;;;;55.57;2.20;;;;;;;;;;5045931;28;20928;-71
2023/12/30 04:59:27;;;;;;;55.60;2.50;;;;;;;;;;5046030;28;20451;-70
2023/12/30 05:01:54;;;;;;;55.50;2.20;;;;;;;;;;5045588;28;20448;-71
2023/12/30 05:04:21;;;;;;;55.50;2.27;;;;;;;;;;5043661;28;20524;-69
2023/12/30 05:06:48;;;;;;;55.47;1.90;;;;;;;;;;5042829;28;20465;-71
2023/12/30 05:09:16;;;;;;;55.40;1.93;;;;;;;;;;5043230;28;20462;-71
2023/12/30 05:11:48;;;;;;;55.63;2.07;;;;;;;;;;5042762;28;20491;-71
2023/12/30 05:14:18;;;;;;;55.57;2.30;;;;;;;;;;5044804;28;20524;-71
2023/12/30 05:16:45;;;;;;;55.77;2.10;;;;;;;;;;5045506;28;20550;-71
2023/12/30 05:19:13;;;;;;;55.47;2.20;;;;;;;;;;5046262;28;20541;-71
2023/12/30 05:21:40;;;;;;;55.60;2.50;;;;;;;;;;5052745;28;20626;-71
2023/12/30 05:24:08;;;;;;;55.37;2.10;;;;;;;;;;5049240;28;20539;-70
2023/12/30 05:26:35;;;;;;;55.47;2.30;;;;;;;;;;5046367;28;20541;-71
2023/12/30 05:29:02;;;;;;;55.63;2.60;;;;;;;;;;5047208;28;21010;-70
2023/12/30 05:31:30;;;;;;;55.67;2.33;;;;;;;;;;5047340;28;20550;-71
2023/12/30 05:33:57;;;;;;;55.60;2.40;;;;;;;;;;5043916;28;20496;-73
2023/12/30 05:36:24;;;;;;;55.27;2.17;;;;;;;;;;5047493;28;20451;-69
2023/12/30 05:38:52;;;;;;;55.17;2.00;;;;;;;;;;5048561;28;20452;-71
2023/12/30 05:41:19;;;;;;;55.50;2.20;;;;;;;;;;5047554;28;20457;-71
2023/12/30 05:43:46;;;;;;;55.47;2.30;;;;;;;;;;5047242;28;20480;-71
2023/12/30 05:46:17;;;;;;;55.97;3.13;;;;;;;;;;5047460;28;20498;-71
2023/12/30 05:48:45;;;;;;;55.67;1.97;;;;;;;;;;5047247;28;20944;-71
2023/12/30 05:51:12;;;;;;;55.27;1.90;;;;;;;;;;5046149;28;20556;-70
2023/12/30 05:53:40;;;;;;;55.60;2.47;;;;;;;;;;5046187;28;20578;-71
2023/12/30 05:56:07;;;;;;;55.50;2.30;;;;;;;;;;5046215;28;20526;-68
2023/12/30 05:58:35;;;;;;;55.60;2.00;;;;;;;;;;5045663;28;20455;-71
2023/12/30 06:01:02;;;;;;;55.47;2.40;;;;;;;;;;5046085;28;20452;-71
2023/12/30 06:03:29;;;;;;;55.40;2.17;;;;;;;;;;5046336;28;20886;-71
2023/12/30 06:05:58;;;;;;;55.47;2.00;;;;;;;;;;5045004;28;20948;-70
2023/12/30 06:08:25;;;;;;;55.43;2.10;;;;;;;;;;5061683;28;20575;-70
2023/12/30 06:10:53;;;;;;;55.40;2.20;;;;;;;;;;5044379;28;20507;-71
2023/12/30 06:13:21;;;;;;;55.47;2.13;;;;;;;;;;5044819;28;20497;-71
2023/12/30 06:15:51;;;;;;;55.47;2.10;;;;;;;;;;5044714;28;20855;-71
2023/12/30 06:18:19;;;;;;;55.60;2.00;;;;;;;;;;5045062;28;20455;-71
2023/12/30 06:20:46;;;;;;;55.30;2.10;;;;;;;;;;5045098;28;20467;-70
2023/12/30 06:23:15;;;;;;;55.57;2.43;;;;;;;;;;5044427;28;20540;-71
2023/12/30 06:25:42;;;;;;;55.27;1.93;;;;;;;;;;5044856;28;20449;-71
2023/12/30 06:28:09;;;;;;;55.13;1.93;;;;;;;;;;5044244;28;20457;-71
2023/12/30 06:30:36;;;;;;;55.30;2.30;;;;;;;;;;5044052;28;20527;-71
2023/12/30 06:33:06;;;;;;;55.50;2.30;;;;;;;;;;5042940;28;20494;-70
2023/12/30 06:35:34;;;;;;;55.40;1.93;;;;;;;;;;5056011;28;20483;-69
2023/12/30 06:38:01;;;;;;;55.63;2.40;;;;;;;;;;5063824;28;20451;-70
2023/12/30 06:40:30;;;;;;;55.43;2.30;;;;;;;;;;5063113;28;20456;-71
2023/12/30 06:42:57;;;;;;;55.57;2.20;;;;;;;;;;5063315;28;20561;-70
2023/12/30 06:45:24;;;;;;;55.60;2.10;;;;;;;;;;5063255;28;20541;-71
2023/12/30 06:47:51;;;;;;;55.47;2.30;;;;;;;;;;5063728;28;20522;-70
2023/12/30 06:50:20;;;;;;;55.90;2.40;;;;;;;;;;5063750;28;20526;-71
2023/12/30 06:52:47;;;;;;;55.57;2.30;;;;;;;;;;5063861;28;20541;-71
2023/12/30 06:55:14;;;;;;;55.67;2.30;;;;;;;;;;5063996;28;20450;-71
2023/12/30 06:57:43;;;;;;;55.37;2.30;;;;;;;;;;5062712;28;20458;-70
2023/12/30 07:00:10;;;;;;;55.47;1.87;;;;;;;;;;5055210;28;20450;-71
2023/12/30 07:02:37;;;;;;;55.23;2.10;;;;;;;;;;5062582;28;20478;-70
2023/12/30 07:05:05;;;;;;;55.70;2.30;;;;;;;;;;5061703;28;20453;-71
2023/12/30 07:07:33;;;;;;;55.70;2.50;;;;;;;;;;5063291;28;20456;-72
2023/12/30 07:10:00;;;;;;;55.57;2.27;;;;;;;;;;5061741;28;20459;-70
2023/12/30 07:12:27;;;;;;;55.50;2.27;;;;;;;;;;5062308;28;21174;-70
2023/12/30 07:14:57;;;;;;;55.50;2.30;;;;;;;;;;5062539;28;20481;-69
2023/12/30 07:17:24;;;;;;;55.63;2.20;;;;;;;;;;5062468;28;20497;-72
2023/12/30 07:19:51;;;;;;;55.60;2.30;;;;;;;;;;5062597;28;20549;-72
2023/12/30 07:22:19;;;;;;;55.27;2.03;;;;;;;;;;5060841;28;20468;-72
2023/12/30 07:24:47;;;;;;;55.37;2.10;;;;;;;;;;5062151;28;20469;-72
2023/12/30 07:27:14;;;;;;;55.50;2.00;;;;;;;;;;5064864;28;20480;-72
2023/12/30 07:29:41;;;;;;;55.40;2.00;;;;;;;;;;5066369;28;20483;-72
2023/12/30 07:32:10;;;;;;;55.50;2.40;;;;;;;;;;5066969;28;21103;-72
2023/12/30 07:34:37;;;;;;;55.60;1.90;;;;;;;;;;5066059;28;20478;-72
2023/12/30 07:37:04;;;;;;;55.03;2.10;;;;;;;;;;5065434;28;20483;-72
2023/12/30 07:39:33;;;;;;;55.47;2.17;;;;;;;;;;5066577;28;20482;-72
2023/12/30 07:42:00;;;;;;;55.73;2.30;;;;;;;;;;5066508;28;20441;-70
2023/12/30 07:44:29;;;;;;;55.17;2.20;;;;;;;;;;5065388;28;20449;-72
2023/12/30 07:46:56;;;;;;;55.60;2.07;;;;;;;;;;5064693;28;20516;-72
2023/12/30 07:49:24;;;;;;;55.47;1.90;;;;;;;;;;5066152;28;20990;-72
2023/12/30 07:51:53;;;;;;;55.50;2.23;;;;;;;;;;5065196;28;20494;-72
2023/12/30 07:54:20;;;;;;;55.70;2.23;;;;;;;;;;5065006;28;20563;-72
2023/12/30 07:56:47;;;;;;;55.60;2.30;;;;;;;;;;5066518;28;20547;-71
2023/12/30 07:59:14;;;;;;;55.40;2.10;;;;;;;;;;5066862;28;20485;-71
2023/12/30 08:01:43;;;;;;;55.53;2.00;;;;;;;;;;5066987;28;20547;-72
2023/12/30 08:04:10;;;;;;;55.47;2.07;;;;;;;;;;5066387;28;20481;-68
2023/12/30 08:06:39;;;;;;;55.90;2.23;;;;;;;;;;5063223;28;20512;-70
2023/12/30 08:09:06;;;;;;;55.57;2.47;;;;;;;;;;5044839;28;20489;-70
2023/12/30 08:11:35;;;;;;;55.70;2.20;;;;;;;;;;5043597;28;20457;-72
2023/12/30 08:14:02;;;;;;;55.50;1.90;;;;;;;;;;5045955;28;20529;-72
2023/12/30 08:16:29;;;;;;;55.57;1.90;;;;;;;;;;5045992;28;20488;-72
2023/12/30 08:18:56;;;;;;;55.80;2.20;;;;;;;;;;5045618;28;20444;-72
2023/12/30 08:21:23;;;;;;;55.67;2.10;;;;;;;;;;5045727;28;20994;-72
2023/12/30 08:23:54;;;;;;;55.30;1.73;;;;;;;;;;5046722;28;20463;-72
2023/12/30 08:26:21;;;;;;;55.57;2.10;;;;;;;;;;5046940;28;20451;-71
2023/12/30 08:28:48;;;;;;;55.47;2.07;;;;;;;;;;5047170;28;20530;-72
2023/12/30 08:31:16;;;;;;;57.80;2.80;;;;;;;;;;5046615;28;20522;-71
2023/12/30 08:33:43;;;;;;;55.40;1.73;;;;;;;;;;5046722;28;20498;-71
2023/12/30 08:36:10;;;;;;;55.40;1.70;;;;;;;;;;5045072;28;20483;-71
2023/12/30 08:38:37;;;;;;;55.60;2.03;;;;;;;;;;5045750;28;20456;-71
2023/12/30 08:41:09;;;;;;;55.50;1.97;;;;;;;;;;5045806;28;20516;-71
2023/12/30 08:43:37;;;;;;;55.13;2.10;;;;;;;;;;5045800;28;20517;-70
2023/12/30 08:46:04;;;;;;;54.87;2.00;;;;;;;;;;5046021;28;20906;-71
2023/12/30 08:48:31;;;;;;;55.77;2.07;;;;;;;;;;5045661;28;20653;-71
2023/12/30 08:50:58;;;;;;;55.50;1.87;;;;;;;;;;5046787;28;20448;-71
2023/12/30 08:53:25;;;;;;;54.97;1.90;;;;;;;;;;5047255;28;20496;-69
2023/12/30 08:55:53;;;;;;;55.50;1.90;;;;;;;;;;5046558;28;20478;-71
2023/12/30 08:58:23;;;;;;;55.40;1.87;;;;;;;;;;5048872;28;20467;-71
2023/12/30 09:00:51;;;;;;;54.80;2.00;;;;;;;;;;5046815;28;20514;-71
2023/12/30 09:03:18;;;;;;;55.70;2.10;;;;;;;;;;5046171;28;20930;-70
2023/12/30 09:05:45;;;;;;;54.97;1.90;;;;;;;;;;5046818;28;20478;-71
2023/12/30 09:08:12;;;;;;;55.70;2.10;;;;;;;;;;5046845;28;20483;-70
2023/12/30 09:10:39;;;;;;;55.17;1.90;;;;;;;;;;5046321;28;20593;-71
2023/12/30 09:13:07;;;;;;;55.47;2.07;;;;;;;;;;5046371;28;20486;-68
2023/12/30 09:15:35;;;;;;;55.53;2.20;;;;;;;;;;5046339;28;20539;-70
2023/12/30 09:18:02;;;;;;;54.87;1.80;;;;;;;;;;5046464;28;20498;-71
2023/12/30 09:20:29;;;;;;;55.40;2.10;;;;;;;;;;5047841;28;20484;-71
2023/12/30 09:22:56;;;;;;;55.60;1.93;;;;;;;;;;5048636;28;20475;-71
2023/12/30 09:25:24;;;;;;;55.50;1.97;;;;;;;;;;5049638;28;20451;-71
2023/12/30 09:27:51;;;;;;;55.40;2.03;;;;;;;;;;5049559;28;20460;-70
2023/12/30 09:30:18;;;;;;;55.70;1.90;;;;;;;;;;5051144;28;21009;-70
2023/12/30 09:32:47;;;;;;;54.97;1.57;;;;;;;;;;5054339;28;20530;-69
2023/12/30 09:35:21;;;;;;;55.27;1.73;;;;;;;;;;5055613;28;20661;-69
2023/12/30 09:37:49;;;;;;;55.47;1.90;;;;;;;;;;5055730;28;20443;-68
2023/12/30 09:40:17;;;;;;;55.80;1.90;;;;;;;;;;5056081;28;20494;-68
2023/12/30 09:42:47;;;;;;;55.60;2.00;;;;;;;;;;5067481;28;20468;-69
2023/12/30 09:45:14;;;;;;;55.43;2.07;;;;;;;;;;5074655;28;20435;-70
2023/12/30 09:47:42;;;;;;;55.47;1.73;;;;;;;;;;5073881;28;20462;-70
2023/12/30 09:50:11;;;;;;;55.50;1.97;;;;;;;;;;5073261;28;20464;-70
2023/12/30 09:52:38;;;;;;;55.70;2.10;;;;;;;;;;5071569;28;20489;-72
2023/12/30 09:55:05;;;;;;;55.67;2.00;;;;;;;;;;5071511;28;20447;-71
2023/12/30 09:57:32;;;;;;;55.13;1.80;;;;;;;;;;5072810;28;20537;-70
2023/12/30 10:00:00;;;;;;;55.37;1.80;;;;;;;;;;5071852;28;20552;-69
2023/12/30 10:02:27;;;;;;;55.60;1.80;;;;;;;;;;5071359;28;21064;-71
2023/12/30 10:04:55;;;;;;;55.03;1.77;;;;;;;;;;5068838;28;20530;-71
2023/12/30 10:07:23;;;;;;;55.20;1.67;;;;;;;;;;5068799;28;20513;-71
2023/12/30 10:09:51;;;;;;;55.37;1.90;;;;;;;;;;5069095;28;20524;-70
2023/12/30 10:12:19;;;;;;;55.43;1.90;;;;;;;;;;5069206;28;20484;-71
2023/12/30 10:14:46;;;;;;;55.67;2.00;;;;;;;;;;5071788;28;20438;-70
2023/12/30 10:17:13;;;;;;;55.40;1.97;;;;;;;;;;5071528;28;20525;-69
2023/12/30 10:19:41;;;;;;;55.67;2.00;;;;;;;;;;5075025;28;20454;-69
2023/12/30 10:22:08;;;;;;;56.00;2.20;;;;;;;;;;5074514;28;20480;-70
2023/12/30 10:24:37;;;;;;;55.77;1.83;;;;;;;;;;5075152;28;20465;-68
2023/12/30 10:27:04;;;;;;;55.60;1.93;;;;;;;;;;5075983;28;20431;-69
2023/12/30 10:29:31;;;;;;;55.87;2.00;;;;;;;;;;5075981;28;20449;-68
2023/12/30 10:32:03;;;;;;;55.77;1.80;;;;;;;;;;5076047;28;20501;-67
2023/12/30 10:34:31;;;;;;;55.73;1.90;;;;;;;;;;5072950;28;20488;-67
2023/12/30 10:36:59;;;;;;;55.83;1.90;;;;;;;;;;5062077;28;20443;-69
2023/12/30 10:39:26;;;;;;;55.90;1.80;;;;;;;;;;5057130;28;20508;-67
2023/12/30 10:41:57;;;;;;;55.87;1.80;;;;;;;;;;5062301;28;20474;-69
2023/12/30 10:44:24;;;;;;;55.67;1.93;;;;;;;;;;5058293;28;20459;-69
2023/12/30 10:46:51;;;;;;;55.97;1.90;;;;;;;;;;5063844;28;20466;-67
2023/12/30 10:49:22;;;;;;;55.80;1.90;;;;;;;;;;5063516;28;20502;-69
2023/12/30 10:51:49;;;;;;;55.67;1.80;;;;;;;;;;5064377;28;20470;-66
2023/12/30 10:54:22;;;;;;;55.80;2.00;;;;;;;;;;5059501;28;20514;-70
2023/12/30 10:56:54;;;;;;;55.77;1.77;;;;;;;;;;5062463;28;20482;-71
2023/12/30 10:59:23;;;;;;;55.80;1.80;;;;;;;;;;5073872;28;20458;-68
2023/12/30 11:01:50;;;;;;;55.70;1.90;;;;;;;;;;5077104;28;20915;-70
2023/12/30 11:04:17;;;;;;;55.70;1.80;;;;;;;;;;5062651;28;20747;-68
2023/12/30 11:06:47;;;;;;;55.70;1.60;;;;;;;;;;5076703;28;20431;-68
2023/12/30 11:09:14;;;;;;;55.67;1.90;;;;;;;;;;5070146;28;20436;-68
2023/12/30 11:11:41;;;;;;;55.77;1.80;;;;;;;;;;5060270;28;20459;-68
2023/12/30 11:14:12;;;;;;;55.37;1.70;;;;;;;;;;5067390;28;20544;-68
2023/12/30 11:16:41;;;;;;;55.60;1.80;;;;;;;;;;5069470;28;20460;-68
2023/12/30 11:19:08;;;;;;;55.67;1.90;;;;;;;;;;5078616;28;20695;-69
2023/12/30 11:21:39;;;;;;;55.60;1.77;;;;;;;;;;5077680;28;20494;-68
2023/12/30 11:24:08;;;;;;;55.80;1.90;;;;;;;;;;5059385;28;20493;-68
2023/12/30 11:26:36;;;;;;;55.47;2.07;;;;;;;;;;5077644;28;20429;-69
2023/12/30 11:29:04;;;;;;;55.53;1.80;;;;;;;;;;5079484;28;20472;-68
2023/12/30 11:31:32;;;;;;;55.60;1.70;;;;;;;;;;5079356;28;20475;-70
2023/12/30 11:34:01;;;;;;;55.70;1.93;;;;;;;;;;5078750;28;20482;-67
2023/12/30 11:36:29;;;;;;;55.57;1.63;;;;;;;;;;5079407;28;20428;-67
2023/12/30 11:38:57;;;;;;;56.67;2.27;;;;;;;;;;5079273;28;20454;-68
2023/12/30 11:41:25;;;;;;;55.60;1.90;;;;;;;;;;5079181;28;20438;-68
2023/12/30 11:43:52;;;;;;;55.87;1.90;;;;;;;;;;5079055;28;20467;-68
2023/12/30 11:46:19;;;;;;;55.43;1.77;;;;;;;;;;5079261;28;20445;-68
2023/12/30 11:48:46;;;;;;;55.77;1.90;;;;;;;;;;5079142;28;20452;-68
2023/12/30 11:51:21;;;;;;;55.67;1.77;;;;;;;;;;5079071;28;20505;-68
2023/12/30 11:53:48;;;;;;;57.27;2.20;;;;;;;;;;5058665;28;20495;-67
2023/12/30 11:56:16;;;;;;;55.43;2.10;;;;;;;;;;5059191;28;20437;-68
2023/12/30 11:58:43;;;;;;;55.47;1.83;;;;;;;;;;5070019;28;20429;-67
2023/12/30 12:01:10;;;;;;;55.47;1.80;;;;;;;;;;5078930;28;20458;-67
2023/12/30 12:03:38;;;;;;;55.53;1.70;;;;;;;;;;5078624;28;20530;-67
2023/12/30 12:06:05;;;;;;;55.60;1.73;;;;;;;;;;5078791;28;20440;-67
2023/12/30 12:08:33;;;;;;;55.70;1.80;;;;;;;;;;5078800;28;20451;-67
2023/12/30 12:11:01;;;;;;;55.63;1.87;;;;;;;;;;5078446;28;20506;-68
2023/12/30 12:13:28;;;;;;;55.90;1.90;;;;;;;;;;5078263;28;20569;-67
2023/12/30 12:15:56;;;;;;;56.00;2.00;;;;;;;;;;5078691;28;20499;-68
2023/12/30 12:18:24;;;;;;;55.47;1.80;;;;;;;;;;5078830;28;20470;-68
2023/12/30 12:20:51;;;;;;;56.00;1.90;;;;;;;;;;5078598;28;20470;-68
2023/12/30 12:23:18;;;;;;;55.57;1.80;;;;;;;;;;5078233;28;20460;-68
2023/12/30 12:25:47;;;;;;;55.37;1.87;;;;;;;;;;5078394;28;20469;-68
2023/12/30 12:28:16;;;;;;;55.90;1.90;;;;;;;;;;5078404;28;20471;-69
2023/12/30 12:30:43;;;;;;;55.77;1.90;;;;;;;;;;5078312;28;20460;-67
2023/12/30 12:33:10;;;;;;;55.90;1.97;;;;;;;;;;5077992;28;20522;-68
2023/12/30 12:35:37;;;;;;;55.87;2.37;;;;;;;;;;5069706;28;20452;-69
2023/12/30 12:38:04;;;;;;;55.70;1.83;;;;;;;;;;5072488;28;20470;-68
2023/12/30 12:40:32;;;;;;;55.67;1.80;;;;;;;;;;5068476;28;20510;-68
2023/12/30 12:43:00;;;;;;;55.63;1.80;;;;;;;;;;5062715;28;20535;-68
2023/12/30 12:45:27;;;;;;;55.90;1.90;;;;;;;;;;5075226;28;20535;-69
2023/12/30 12:47:54;;;;;;;55.87;1.90;;;;;;;;;;5077650;28;20486;-68
2023/12/30 12:50:21;;;;;;;55.67;1.90;;;;;;;;;;5061946;28;20476;-68
2023/12/30 12:52:49;;;;;;;55.73;1.87;;;;;;;;;;5068368;28;20476;-68
2023/12/30 12:55:16;;;;;;;55.97;1.70;;;;;;;;;;5056151;28;21204;-70
2023/12/30 12:57:43;;;;;;;55.77;1.90;;;;;;;;;;5055266;28;20518;-69
2023/12/30 13:00:12;;;;;;;55.53;1.80;;;;;;;;;;5055280;28;20504;-69
2023/12/30 13:02:40;;;;;;;55.67;1.70;;;;;;;;;;5063209;28;20468;-71
2023/12/30 13:05:09;;;;;;;55.33;1.80;;;;;;;;;;5053927;28;20453;-70
2023/12/30 13:07:38;;;;;;;55.77;1.93;;;;;;;;;;5053804;28;20438;-68
2023/12/30 13:10:27;;;;;;;55.37;1.50;;;;;;;;;;5053995;28;20449;-70
2023/12/30 13:12:56;;;;;;;55.47;1.60;;;;;;;;;;5066006;28;20508;-67
2023/12/30 13:15:25;;;;;;;55.63;1.60;;;;;;;;;;5074379;28;20476;-69
2023/12/30 13:17:53;;;;;;;55.60;1.70;;;;;;;;;;5076455;28;20459;-67
2023/12/30 13:20:20;;;;;;;55.73;1.80;;;;;;;;;;5076626;28;20447;-67
2023/12/30 13:22:55;;;;;;;55.77;2.00;;;;;;;;;;5071884;28;20473;-69
2023/12/30 13:25:22;;;;;;;55.80;2.00;;;;;;;;;;5065802;28;20457;-67
2023/12/30 13:27:51;;;;;;;56.00;2.10;;;;;;;;;;5060597;28;20528;-68
2023/12/30 13:30:22;;;;;;;56.03;2.27;;;;;;;;;;5062026;28;20449;-67
2023/12/30 13:32:56;;;;;;;56.30;2.10;;;;;;;;;;5071956;28;20495;-67
2023/12/30 13:35:25;;;;;;;56.30;2.50;;;;;;;;;;5071584;28;20505;-67
2023/12/30 13:37:55;;;;;;;56.50;2.60;;;;;;;;;;5065337;28;20434;-67
2023/12/30 13:40:22;;;;;;;56.27;2.30;;;;;;;;;;5064446;28;20453;-68
2023/12/30 13:42:53;;;;;;;55.97;1.97;;;;;;;;;;5076843;28;20481;-70
2023/12/30 13:45:20;;;;;;;56.10;2.00;;;;;;;;;;5076783;28;20452;-67
2023/12/30 13:48:23;;;;;;;56.07;2.00;;;;;;;;;;5076881;28;20464;-69
2023/12/30 13:50:49;;;;;;;55.87;1.77;;;;;;;;;;5076432;28;20453;-68
2023/12/30 13:53:17;;;;;;;56.13;2.50;;;;;;;;;;5076203;28;20490;-69
2023/12/30 13:55:44;;;;;;;55.67;2.03;;;;;;;;;;5074839;28;20447;-69
2023/12/30 13:58:11;;;;;;;55.87;1.90;;;;;;;;;;5056847;28;20449;-69
2023/12/30 14:00:42;;;;;;;55.90;2.00;;;;;;;;;;5066033;28;20452;-68
2023/12/30 14:03:09;;;;;;;56.20;2.00;;;;;;;;;;5076376;28;20467;-67
2023/12/30 14:05:40;;;;;;;55.87;2.03;;;;;;;;;;5076540;28;20433;-68
2023/12/30 14:08:17;;;;;;;56.10;2.00;;;;;;;;;;5076670;28;20451;-68
2023/12/30 14:10:47;;;;;;;55.87;2.00;;;;;;;;;;5076374;28;20514;-68
2023/12/30 14:13:15;;;;;;;55.40;1.90;;;;;;;;;;5072446;28;20463;-68
2023/12/30 14:15:42;;;;;;;58.00;3.27;;;;;;;;;;5071899;28;20479;-68
2023/12/30 14:18:09;;;;;;;56.13;2.10;;;;;;;;;;5064973;28;20433;-68
2023/12/30 14:20:36;;;;;;;55.97;1.90;;;;;;;;;;5053621;28;20501;-69
2023/12/30 14:23:03;;;;;;;55.97;2.00;;;;;;;;;;5056623;28;20537;-69
2023/12/30 14:25:32;;;;;;;58.40;2.77;;;;;;;;;;5064270;28;20738;-69
2023/12/30 14:28:01;;;;;;;56.23;2.60;;;;;;;;;;5055215;28;20547;-70
2023/12/30 14:30:30;;;;;;;55.80;2.20;;;;;;;;;;5066776;28;20448;-70
2023/12/30 14:32:57;;;;;;;55.77;1.90;;;;;;;;;;5065133;28;20534;-67
2023/12/30 14:35:25;;;;;;;55.73;1.90;;;;;;;;;;5077859;28;20609;-70
2023/12/30 14:37:52;;;;;;;55.17;2.00;;;;;;;;;;5067058;28;20463;-70